sensor_id;sensor_type;location;lat;lon;timestamp;P1;durP1;ratioP1;P2;durP2;ratioP2
74469;SDS011;62918;55.706;37.816;2022-08-20T00:00:26;29.73;;;19.52;;
74469;SDS011;62918;55.706;37.816;2022-08-20T00:00:59;25.30;;;18.75;;
74469;SDS011;62918;55.706;37.816;2022-08-20T00:01:30;31.65;;;18.65;;
74469;SDS011;62918;55.706;37.816;2022-08-20T00:02:00;26.13;;;17.80;;
74469;SDS011;62918;55.706;37.816;2022-08-20T00:02:37;25.40;;;19.17;;
74469;SDS011;62918;55.706;37.816;2022-08-20T00:03:19;29.15;;;18.98;;
74469;SDS011;62918;55.706;37.816;2022-08-20T00:03:56;26.25;;;17.90;;
74469;SDS011;62918;55.706;37.816;2022-08-20T00:04:27;26.48;;;18.33;;
74469;SDS011;62918;55.706;37.816;2022-08-20T00:04:57;28.13;;;18.83;;
74469;SDS011;62918;55.706;37.816;2022-08-20T00:05:29;31.27;;;18.08;;
74469;SDS011;62918;55.706;37.816;2022-08-20T00:06:39;26.73;;;17.77;;
74469;SDS011;62918;55.706;37.816;2022-08-20T00:07:10;30.05;;;18.48;;
74469;SDS011;62918;55.706;37.816;2022-08-20T00:07:40;29.77;;;18.23;;
74469;SDS011;62918;55.706;37.816;2022-08-20T00:08:11;26.88;;;19.02;;
74469;SDS011;62918;55.706;37.816;2022-08-20T00:08:43;35.20;;;18.77;;
74469;SDS011;62918;55.706;37.816;2022-08-20T00:09:14;27.52;;;18.65;;
74469;SDS011;62918;55.706;37.816;2022-08-20T00:09:44;28.40;;;20.00;;
74469;SDS011;62918;55.706;37.816;2022-08-20T00:10:16;27.63;;;20.02;;
74469;SDS011;62918;55.706;37.816;2022-08-20T00:10:47;35.65;;;20.38;;
74469;SDS011;62918;55.706;37.816;2022-08-20T00:11:20;28.02;;;20.10;;
74469;SDS011;62918;55.706;37.816;2022-08-20T00:11:53;29.60;;;21.48;;
74469;SDS011;62918;55.706;37.816;2022-08-20T00:12:24;30.80;;;20.92;;
74469;SDS011;62918;55.706;37.816;2022-08-20T00:12:55;28.70;;;20.15;;
74469;SDS011;62918;55.706;37.816;2022-08-20T00:13:31;31.08;;;19.88;;
74469;SDS011;62918;55.706;37.816;2022-08-20T00:14:04;29.13;;;19.33;;
74469;SDS011;62918;55.706;37.816;2022-08-20T00:14:36;30.48;;;20.75;;
74469;SDS011;62918;55.706;37.816;2022-08-20T00:15:07;30.20;;;21.05;;
74469;SDS011;62918;55.706;37.816;2022-08-20T00:15:38;29.55;;;20.88;;
74469;SDS011;62918;55.706;37.816;2022-08-20T00:16:09;27.20;;;20.50;;
74469;SDS011;62918;55.706;37.816;2022-08-20T00:16:41;30.73;;;19.80;;
74469;SDS011;62918;55.706;37.816;2022-08-20T00:17:11;29.67;;;20.75;;
74469;SDS011;62918;55.706;37.816;2022-08-20T00:17:42;29.05;;;21.38;;
74469;SDS011;62918;55.706;37.816;2022-08-20T00:18:13;27.23;;;20.67;;
74469;SDS011;62918;55.706;37.816;2022-08-20T00:18:44;28.70;;;20.45;;
74469;SDS011;62918;55.706;37.816;2022-08-20T00:19:15;32.08;;;21.63;;
74469;SDS011;62918;55.706;37.816;2022-08-20T00:19:47;31.63;;;20.88;;
74469;SDS011;62918;55.706;37.816;2022-08-20T00:20:18;31.38;;;20.80;;
74469;SDS011;62918;55.706;37.816;2022-08-20T00:20:52;31.77;;;22.48;;
74469;SDS011;62918;55.706;37.816;2022-08-20T00:21:24;30.58;;;20.80;;
74469;SDS011;62918;55.706;37.816;2022-08-20T00:21:55;29.95;;;20.52;;
74469;SDS011;62918;55.706;37.816;2022-08-20T00:22:26;29.42;;;21.10;;
74469;SDS011;62918;55.706;37.816;2022-08-20T00:22:57;27.27;;;20.00;;
74469;SDS011;62918;55.706;37.816;2022-08-20T00:23:28;32.53;;;20.67;;
74469;SDS011;62918;55.706;37.816;2022-08-20T00:23:58;27.52;;;20.60;;
74469;SDS011;62918;55.706;37.816;2022-08-20T00:24:29;30.85;;;20.63;;
74469;SDS011;62918;55.706;37.816;2022-08-20T00:24:59;28.15;;;20.92;;
74469;SDS011;62918;55.706;37.816;2022-08-20T00:25:30;29.45;;;19.67;;
74469;SDS011;62918;55.706;37.816;2022-08-20T00:26:02;39.92;;;21.30;;
74469;SDS011;62918;55.706;37.816;2022-08-20T00:26:33;26.75;;;18.73;;
74469;SDS011;62918;55.706;37.816;2022-08-20T00:27:04;28.05;;;20.05;;
74469;SDS011;62918;55.706;37.816;2022-08-20T00:27:34;32.40;;;21.08;;
74469;SDS011;62918;55.706;37.816;2022-08-20T00:28:05;28.52;;;20.42;;
74469;SDS011;62918;55.706;37.816;2022-08-20T00:28:36;29.85;;;21.63;;
74469;SDS011;62918;55.706;37.816;2022-08-20T00:29:07;30.15;;;20.58;;
74469;SDS011;62918;55.706;37.816;2022-08-20T00:29:38;29.85;;;20.13;;
74469;SDS011;62918;55.706;37.816;2022-08-20T00:30:09;31.55;;;20.92;;
74469;SDS011;62918;55.706;37.816;2022-08-20T00:30:42;27.90;;;20.65;;
74469;SDS011;62918;55.706;37.816;2022-08-20T00:31:15;30.15;;;19.13;;
74469;SDS011;62918;55.706;37.816;2022-08-20T00:31:48;30.50;;;20.23;;
74469;SDS011;62918;55.706;37.816;2022-08-20T00:32:19;28.92;;;19.45;;
74469;SDS011;62918;55.706;37.816;2022-08-20T00:32:52;29.77;;;19.90;;
74469;SDS011;62918;55.706;37.816;2022-08-20T00:33:27;28.80;;;19.33;;
74469;SDS011;62918;55.706;37.816;2022-08-20T00:33:58;24.67;;;19.65;;
74469;SDS011;62918;55.706;37.816;2022-08-20T00:34:28;26.70;;;19.08;;
74469;SDS011;62918;55.706;37.816;2022-08-20T00:34:59;30.17;;;18.70;;
74469;SDS011;62918;55.706;37.816;2022-08-20T00:35:30;31.10;;;19.00;;
74469;SDS011;62918;55.706;37.816;2022-08-20T00:36:03;29.85;;;19.00;;
74469;SDS011;62918;55.706;37.816;2022-08-20T00:36:39;30.88;;;18.88;;
74469;SDS011;62918;55.706;37.816;2022-08-20T00:37:10;24.98;;;18.15;;
74469;SDS011;62918;55.706;37.816;2022-08-20T00:37:40;28.25;;;20.38;;
74469;SDS011;62918;55.706;37.816;2022-08-20T00:38:11;31.38;;;20.08;;
74469;SDS011;62918;55.706;37.816;2022-08-20T00:38:43;29.98;;;18.73;;
74469;SDS011;62918;55.706;37.816;2022-08-20T00:39:15;31.73;;;19.25;;
74469;SDS011;62918;55.706;37.816;2022-08-20T00:39:45;30.17;;;19.20;;
74469;SDS011;62918;55.706;37.816;2022-08-20T00:40:19;29.20;;;19.20;;
74469;SDS011;62918;55.706;37.816;2022-08-20T00:40:55;29.70;;;18.63;;
74469;SDS011;62918;55.706;37.816;2022-08-20T00:41:26;26.35;;;17.90;;
74469;SDS011;62918;55.706;37.816;2022-08-20T00:41:58;32.90;;;19.00;;
74469;SDS011;62918;55.706;37.816;2022-08-20T00:42:28;31.30;;;18.80;;
74469;SDS011;62918;55.706;37.816;2022-08-20T00:42:59;26.52;;;17.90;;
74469;SDS011;62918;55.706;37.816;2022-08-20T00:44:12;26.92;;;17.23;;
74469;SDS011;62918;55.706;37.816;2022-08-20T00:44:45;26.13;;;18.02;;
74469;SDS011;62918;55.706;37.816;2022-08-20T00:45:17;26.83;;;18.67;;
74469;SDS011;62918;55.706;37.816;2022-08-20T00:45:49;24.77;;;17.90;;
74469;SDS011;62918;55.706;37.816;2022-08-20T00:46:25;27.05;;;17.92;;
74469;SDS011;62918;55.706;37.816;2022-08-20T00:46:57;23.20;;;16.15;;
74469;SDS011;62918;55.706;37.816;2022-08-20T00:47:27;24.73;;;17.45;;
74469;SDS011;62918;55.706;37.816;2022-08-20T00:47:58;27.50;;;17.73;;
74469;SDS011;62918;55.706;37.816;2022-08-20T00:48:29;30.48;;;17.85;;
74469;SDS011;62918;55.706;37.816;2022-08-20T00:49:01;23.40;;;17.17;;
74469;SDS011;62918;55.706;37.816;2022-08-20T00:49:34;25.38;;;19.98;;
74469;SDS011;62918;55.706;37.816;2022-08-20T00:50:05;26.70;;;17.50;;
74469;SDS011;62918;55.706;37.816;2022-08-20T00:50:36;26.83;;;18.35;;
74469;SDS011;62918;55.706;37.816;2022-08-20T00:51:09;25.50;;;18.17;;
74469;SDS011;62918;55.706;37.816;2022-08-20T00:51:46;27.92;;;18.20;;
74469;SDS011;62918;55.706;37.816;2022-08-20T00:52:19;23.27;;;19.35;;
74469;SDS011;62918;55.706;37.816;2022-08-20T00:52:51;28.48;;;18.42;;
74469;SDS011;62918;55.706;37.816;2022-08-20T00:53:23;26.98;;;17.75;;
74469;SDS011;62918;55.706;37.816;2022-08-20T00:53:57;26.27;;;18.23;;
74469;SDS011;62918;55.706;37.816;2022-08-20T00:55:11;25.42;;;17.45;;
74469;SDS011;62918;55.706;37.816;2022-08-20T00:55:42;23.35;;;18.23;;
74469;SDS011;62918;55.706;37.816;2022-08-20T00:56:13;26.10;;;16.88;;
74469;SDS011;62918;55.706;37.816;2022-08-20T00:56:46;23.20;;;16.67;;
74469;SDS011;62918;55.706;37.816;2022-08-20T00:57:27;29.70;;;16.83;;
74469;SDS011;62918;55.706;37.816;2022-08-20T00:58:03;26.38;;;18.02;;
74469;SDS011;62918;55.706;37.816;2022-08-20T00:58:38;22.90;;;16.85;;
74469;SDS011;62918;55.706;37.816;2022-08-20T00:59:15;21.58;;;18.13;;
74469;SDS011;62918;55.706;37.816;2022-08-20T00:59:49;25.85;;;16.63;;
74469;SDS011;62918;55.706;37.816;2022-08-20T01:00:26;26.55;;;17.50;;
74469;SDS011;62918;55.706;37.816;2022-08-20T01:01:00;26.80;;;17.10;;
74469;SDS011;62918;55.706;37.816;2022-08-20T01:01:30;26.65;;;18.58;;
74469;SDS011;62918;55.706;37.816;2022-08-20T01:02:04;23.52;;;17.42;;
74469;SDS011;62918;55.706;37.816;2022-08-20T01:02:38;25.73;;;16.42;;
74469;SDS011;62918;55.706;37.816;2022-08-20T01:03:12;25.88;;;16.85;;
74469;SDS011;62918;55.706;37.816;2022-08-20T01:03:44;23.80;;;16.90;;
74469;SDS011;62918;55.706;37.816;2022-08-20T01:04:15;23.23;;;16.13;;
74469;SDS011;62918;55.706;37.816;2022-08-20T01:04:46;24.73;;;16.42;;
74469;SDS011;62918;55.706;37.816;2022-08-20T01:05:22;25.90;;;15.63;;
74469;SDS011;62918;55.706;37.816;2022-08-20T01:05:53;24.77;;;16.88;;
74469;SDS011;62918;55.706;37.816;2022-08-20T01:06:24;22.00;;;16.52;;
74469;SDS011;62918;55.706;37.816;2022-08-20T01:06:55;23.02;;;16.08;;
74469;SDS011;62918;55.706;37.816;2022-08-20T01:07:26;22.77;;;16.17;;
74469;SDS011;62918;55.706;37.816;2022-08-20T01:08:02;21.85;;;16.55;;
74469;SDS011;62918;55.706;37.816;2022-08-20T01:08:33;23.00;;;16.17;;
74469;SDS011;62918;55.706;37.816;2022-08-20T01:09:04;26.58;;;17.63;;
74469;SDS011;62918;55.706;37.816;2022-08-20T01:09:35;20.23;;;16.65;;
74469;SDS011;62918;55.706;37.816;2022-08-20T01:10:13;23.08;;;15.32;;
74469;SDS011;62918;55.706;37.816;2022-08-20T01:10:48;25.77;;;16.30;;
74469;SDS011;62918;55.706;37.816;2022-08-20T01:11:20;24.27;;;15.90;;
74469;SDS011;62918;55.706;37.816;2022-08-20T01:11:55;25.05;;;16.67;;
74469;SDS011;62918;55.706;37.816;2022-08-20T01:12:26;25.35;;;16.95;;
74469;SDS011;62918;55.706;37.816;2022-08-20T01:12:58;26.00;;;15.85;;
74469;SDS011;62918;55.706;37.816;2022-08-20T01:13:29;25.50;;;17.65;;
74469;SDS011;62918;55.706;37.816;2022-08-20T01:14:01;24.77;;;17.27;;
74469;SDS011;62918;55.706;37.816;2022-08-20T01:14:57;24.15;;;16.45;;
74469;SDS011;62918;55.706;37.816;2022-08-20T01:15:30;21.85;;;16.17;;
74469;SDS011;62918;55.706;37.816;2022-08-20T01:16:00;24.77;;;16.63;;
74469;SDS011;62918;55.706;37.816;2022-08-20T01:16:33;24.83;;;17.27;;
74469;SDS011;62918;55.706;37.816;2022-08-20T01:17:05;24.05;;;17.17;;
74469;SDS011;62918;55.706;37.816;2022-08-20T01:17:38;21.48;;;16.75;;
74469;SDS011;62918;55.706;37.816;2022-08-20T01:18:18;24.85;;;15.57;;
74469;SDS011;62918;55.706;37.816;2022-08-20T01:18:52;22.40;;;15.27;;
74469;SDS011;62918;55.706;37.816;2022-08-20T01:19:26;24.15;;;17.13;;
74469;SDS011;62918;55.706;37.816;2022-08-20T01:20:05;24.48;;;15.70;;
74469;SDS011;62918;55.706;37.816;2022-08-20T01:20:40;22.92;;;16.17;;
74469;SDS011;62918;55.706;37.816;2022-08-20T01:21:15;23.45;;;15.52;;
74469;SDS011;62918;55.706;37.816;2022-08-20T01:22:08;23.63;;;16.60;;
74469;SDS011;62918;55.706;37.816;2022-08-20T01:23:03;24.30;;;15.07;;
74469;SDS011;62918;55.706;37.816;2022-08-20T01:24:05;24.17;;;15.35;;
74469;SDS011;62918;55.706;37.816;2022-08-20T01:24:38;24.70;;;17.52;;
74469;SDS011;62918;55.706;37.816;2022-08-20T01:25:22;25.55;;;15.65;;
74469;SDS011;62918;55.706;37.816;2022-08-20T01:26:40;25.10;;;15.60;;
74469;SDS011;62918;55.706;37.816;2022-08-20T01:27:13;23.80;;;15.45;;
74469;SDS011;62918;55.706;37.816;2022-08-20T01:27:44;25.95;;;16.30;;
74469;SDS011;62918;55.706;37.816;2022-08-20T01:28:17;19.65;;;15.18;;
74469;SDS011;62918;55.706;37.816;2022-08-20T01:29:00;22.67;;;15.00;;
74469;SDS011;62918;55.706;37.816;2022-08-20T01:29:34;24.38;;;14.98;;
74469;SDS011;62918;55.706;37.816;2022-08-20T01:30:08;22.70;;;15.85;;
74469;SDS011;62918;55.706;37.816;2022-08-20T01:30:40;20.67;;;15.30;;
74469;SDS011;62918;55.706;37.816;2022-08-20T01:31:15;24.10;;;15.27;;
74469;SDS011;62918;55.706;37.816;2022-08-20T01:31:48;21.13;;;14.70;;
74469;SDS011;62918;55.706;37.816;2022-08-20T01:32:18;27.33;;;15.57;;
74469;SDS011;62918;55.706;37.816;2022-08-20T01:32:49;22.88;;;13.85;;
74469;SDS011;62918;55.706;37.816;2022-08-20T01:33:20;23.42;;;14.60;;
74469;SDS011;62918;55.706;37.816;2022-08-20T01:33:51;24.65;;;15.10;;
74469;SDS011;62918;55.706;37.816;2022-08-20T01:34:23;21.15;;;15.18;;
74469;SDS011;62918;55.706;37.816;2022-08-20T01:34:54;22.48;;;16.27;;
74469;SDS011;62918;55.706;37.816;2022-08-20T01:35:24;24.52;;;15.50;;
74469;SDS011;62918;55.706;37.816;2022-08-20T01:35:57;20.38;;;14.90;;
74469;SDS011;62918;55.706;37.816;2022-08-20T01:36:40;21.42;;;14.27;;
74469;SDS011;62918;55.706;37.816;2022-08-20T01:37:18;23.65;;;13.77;;
74469;SDS011;62918;55.706;37.816;2022-08-20T01:37:48;25.65;;;15.05;;
74469;SDS011;62918;55.706;37.816;2022-08-20T01:38:19;20.25;;;14.73;;
74469;SDS011;62918;55.706;37.816;2022-08-20T01:38:50;23.67;;;14.57;;
74469;SDS011;62918;55.706;37.816;2022-08-20T01:39:23;21.58;;;13.45;;
74469;SDS011;62918;55.706;37.816;2022-08-20T01:39:56;25.92;;;13.35;;
74469;SDS011;62918;55.706;37.816;2022-08-20T01:42:56;23.25;;;14.00;;
74469;SDS011;62918;55.706;37.816;2022-08-20T01:43:26;21.33;;;14.35;;
74469;SDS011;62918;55.706;37.816;2022-08-20T01:43:57;20.65;;;14.82;;
74469;SDS011;62918;55.706;37.816;2022-08-20T01:44:29;20.00;;;13.90;;
74469;SDS011;62918;55.706;37.816;2022-08-20T01:45:00;20.50;;;13.68;;
74469;SDS011;62918;55.706;37.816;2022-08-20T01:45:31;22.63;;;13.82;;
74469;SDS011;62918;55.706;37.816;2022-08-20T01:46:02;18.77;;;13.15;;
74469;SDS011;62918;55.706;37.816;2022-08-20T01:46:35;23.02;;;14.55;;
74469;SDS011;62918;55.706;37.816;2022-08-20T01:47:10;20.88;;;13.40;;
74469;SDS011;62918;55.706;37.816;2022-08-20T01:48:16;20.17;;;13.15;;
74469;SDS011;62918;55.706;37.816;2022-08-20T01:48:48;21.13;;;13.48;;
74469;SDS011;62918;55.706;37.816;2022-08-20T01:49:21;22.33;;;13.60;;
74469;SDS011;62918;55.706;37.816;2022-08-20T01:49:55;22.88;;;13.55;;
74469;SDS011;62918;55.706;37.816;2022-08-20T01:50:30;22.92;;;14.10;;
74469;SDS011;62918;55.706;37.816;2022-08-20T01:51:47;20.83;;;13.30;;
74469;SDS011;62918;55.706;37.816;2022-08-20T01:52:27;21.20;;;12.90;;
74469;SDS011;62918;55.706;37.816;2022-08-20T01:53:16;20.27;;;14.00;;
74469;SDS011;62918;55.706;37.816;2022-08-20T01:53:51;19.95;;;12.40;;
74469;SDS011;62918;55.706;37.816;2022-08-20T01:54:23;21.65;;;13.75;;
74469;SDS011;62918;55.706;37.816;2022-08-20T01:54:54;21.92;;;12.25;;
74469;SDS011;62918;55.706;37.816;2022-08-20T01:55:25;16.77;;;12.65;;
74469;SDS011;62918;55.706;37.816;2022-08-20T01:55:56;19.35;;;13.23;;
74469;SDS011;62918;55.706;37.816;2022-08-20T01:56:28;19.02;;;13.30;;
74469;SDS011;62918;55.706;37.816;2022-08-20T01:57:04;21.75;;;13.70;;
74469;SDS011;62918;55.706;37.816;2022-08-20T01:57:35;18.67;;;13.07;;
74469;SDS011;62918;55.706;37.816;2022-08-20T01:58:07;19.00;;;12.85;;
74469;SDS011;62918;55.706;37.816;2022-08-20T01:58:38;17.55;;;13.65;;
74469;SDS011;62918;55.706;37.816;2022-08-20T01:59:13;19.70;;;12.25;;
74469;SDS011;62918;55.706;37.816;2022-08-20T01:59:44;19.73;;;12.32;;
74469;SDS011;62918;55.706;37.816;2022-08-20T02:00:16;19.63;;;14.13;;
74469;SDS011;62918;55.706;37.816;2022-08-20T02:00:48;19.80;;;13.07;;
74469;SDS011;62918;55.706;37.816;2022-08-20T02:01:58;16.38;;;12.43;;
74469;SDS011;62918;55.706;37.816;2022-08-20T02:02:29;16.33;;;11.90;;
74469;SDS011;62918;55.706;37.816;2022-08-20T02:03:00;16.85;;;12.82;;
74469;SDS011;62918;55.706;37.816;2022-08-20T02:04:03;17.65;;;12.15;;
74469;SDS011;62918;55.706;37.816;2022-08-20T02:04:36;18.48;;;12.23;;
74469;SDS011;62918;55.706;37.816;2022-08-20T02:05:07;17.38;;;11.80;;
74469;SDS011;62918;55.706;37.816;2022-08-20T02:05:37;19.27;;;12.50;;
74469;SDS011;62918;55.706;37.816;2022-08-20T02:06:08;20.10;;;12.40;;
74469;SDS011;62918;55.706;37.816;2022-08-20T02:06:41;18.60;;;12.15;;
74469;SDS011;62918;55.706;37.816;2022-08-20T02:07:15;18.90;;;11.77;;
74469;SDS011;62918;55.706;37.816;2022-08-20T02:07:49;20.45;;;12.80;;
74469;SDS011;62918;55.706;37.816;2022-08-20T02:08:20;18.98;;;11.70;;
74469;SDS011;62918;55.706;37.816;2022-08-20T02:08:58;14.18;;;10.85;;
74469;SDS011;62918;55.706;37.816;2022-08-20T02:09:32;16.80;;;11.80;;
74469;SDS011;62918;55.706;37.816;2022-08-20T02:10:05;15.68;;;10.88;;
74469;SDS011;62918;55.706;37.816;2022-08-20T02:10:38;21.33;;;12.18;;
74469;SDS011;62918;55.706;37.816;2022-08-20T02:11:09;18.23;;;11.32;;
74469;SDS011;62918;55.706;37.816;2022-08-20T02:11:41;18.70;;;11.90;;
74469;SDS011;62918;55.706;37.816;2022-08-20T02:12:12;17.75;;;11.57;;
74469;SDS011;62918;55.706;37.816;2022-08-20T02:12:46;17.15;;;11.52;;
74469;SDS011;62918;55.706;37.816;2022-08-20T02:13:16;19.52;;;11.20;;
74469;SDS011;62918;55.706;37.816;2022-08-20T02:13:47;16.08;;;11.32;;
74469;SDS011;62918;55.706;37.816;2022-08-20T02:14:21;17.60;;;11.38;;
74469;SDS011;62918;55.706;37.816;2022-08-20T02:14:53;17.65;;;11.43;;
74469;SDS011;62918;55.706;37.816;2022-08-20T02:15:24;17.95;;;11.68;;
74469;SDS011;62918;55.706;37.816;2022-08-20T02:15:54;16.90;;;11.82;;
74469;SDS011;62918;55.706;37.816;2022-08-20T02:16:26;16.83;;;10.68;;
74469;SDS011;62918;55.706;37.816;2022-08-20T02:17:00;18.52;;;12.02;;
74469;SDS011;62918;55.706;37.816;2022-08-20T02:17:30;17.60;;;11.00;;
74469;SDS011;62918;55.706;37.816;2022-08-20T02:18:09;17.38;;;11.05;;
74469;SDS011;62918;55.706;37.816;2022-08-20T02:18:43;17.60;;;11.13;;
74469;SDS011;62918;55.706;37.816;2022-08-20T02:19:41;16.77;;;11.45;;
74469;SDS011;62918;55.706;37.816;2022-08-20T02:20:17;19.58;;;11.20;;
74469;SDS011;62918;55.706;37.816;2022-08-20T02:20:50;19.27;;;11.80;;
74469;SDS011;62918;55.706;37.816;2022-08-20T02:21:21;19.60;;;11.90;;
74469;SDS011;62918;55.706;37.816;2022-08-20T02:21:55;19.02;;;11.38;;
74469;SDS011;62918;55.706;37.816;2022-08-20T02:22:48;20.40;;;12.35;;
74469;SDS011;62918;55.706;37.816;2022-08-20T02:23:19;15.80;;;12.32;;
74469;SDS011;62918;55.706;37.816;2022-08-20T02:23:50;19.60;;;11.68;;
74469;SDS011;62918;55.706;37.816;2022-08-20T02:24:20;19.02;;;11.52;;
74469;SDS011;62918;55.706;37.816;2022-08-20T02:24:51;18.50;;;11.77;;
74469;SDS011;62918;55.706;37.816;2022-08-20T02:25:22;21.40;;;11.77;;
74469;SDS011;62918;55.706;37.816;2022-08-20T02:25:56;20.75;;;11.75;;
74469;SDS011;62918;55.706;37.816;2022-08-20T02:26:27;21.33;;;12.70;;
74469;SDS011;62918;55.706;37.816;2022-08-20T02:26:58;16.60;;;11.73;;
74469;SDS011;62918;55.706;37.816;2022-08-20T02:27:29;19.52;;;11.98;;
74469;SDS011;62918;55.706;37.816;2022-08-20T02:28:01;20.95;;;13.63;;
74469;SDS011;62918;55.706;37.816;2022-08-20T02:28:35;16.90;;;12.57;;
74469;SDS011;62918;55.706;37.816;2022-08-20T02:29:07;20.75;;;13.45;;
74469;SDS011;62918;55.706;37.816;2022-08-20T02:29:39;19.92;;;12.90;;
74469;SDS011;62918;55.706;37.816;2022-08-20T02:30:32;18.35;;;12.82;;
74469;SDS011;62918;55.706;37.816;2022-08-20T02:31:04;18.40;;;12.95;;
74469;SDS011;62918;55.706;37.816;2022-08-20T02:31:38;20.00;;;12.95;;
74469;SDS011;62918;55.706;37.816;2022-08-20T02:32:10;20.33;;;12.70;;
74469;SDS011;62918;55.706;37.816;2022-08-20T02:32:41;20.98;;;12.63;;
74469;SDS011;62918;55.706;37.816;2022-08-20T02:33:12;20.52;;;13.07;;
74469;SDS011;62918;55.706;37.816;2022-08-20T02:33:45;17.10;;;12.85;;
74469;SDS011;62918;55.706;37.816;2022-08-20T02:34:15;25.42;;;14.13;;
74469;SDS011;62918;55.706;37.816;2022-08-20T02:34:46;24.00;;;14.35;;
74469;SDS011;62918;55.706;37.816;2022-08-20T02:35:18;25.40;;;13.40;;
74469;SDS011;62918;55.706;37.816;2022-08-20T02:35:49;20.20;;;15.52;;
74469;SDS011;62918;55.706;37.816;2022-08-20T02:36:19;23.90;;;15.10;;
74469;SDS011;62918;55.706;37.816;2022-08-20T02:36:50;24.13;;;15.68;;
74469;SDS011;62918;55.706;37.816;2022-08-20T02:37:21;25.77;;;18.40;;
74469;SDS011;62918;55.706;37.816;2022-08-20T02:37:52;28.73;;;19.15;;
74469;SDS011;62918;55.706;37.816;2022-08-20T02:38:23;23.88;;;18.65;;
74469;SDS011;62918;55.706;37.816;2022-08-20T02:38:54;24.98;;;16.60;;
74469;SDS011;62918;55.706;37.816;2022-08-20T02:39:24;27.42;;;18.83;;
74469;SDS011;62918;55.706;37.816;2022-08-20T02:39:55;26.27;;;17.40;;
74469;SDS011;62918;55.706;37.816;2022-08-20T02:40:26;27.83;;;20.27;;
74469;SDS011;62918;55.706;37.816;2022-08-20T02:41:28;30.92;;;21.52;;
74469;SDS011;62918;55.706;37.816;2022-08-20T02:41:59;27.88;;;19.10;;
74469;SDS011;62918;55.706;37.816;2022-08-20T02:43:02;32.22;;;22.45;;
74469;SDS011;62918;55.706;37.816;2022-08-20T02:43:33;33.85;;;23.08;;
74469;SDS011;62918;55.706;37.816;2022-08-20T02:44:04;33.05;;;23.77;;
74469;SDS011;62918;55.706;37.816;2022-08-20T02:44:37;32.88;;;23.08;;
74469;SDS011;62918;55.706;37.816;2022-08-20T02:45:09;32.20;;;23.27;;
74469;SDS011;62918;55.706;37.816;2022-08-20T02:45:42;32.38;;;23.65;;
74469;SDS011;62918;55.706;37.816;2022-08-20T02:46:12;32.25;;;24.25;;
74469;SDS011;62918;55.706;37.816;2022-08-20T02:46:44;37.60;;;25.00;;
74469;SDS011;62918;55.706;37.816;2022-08-20T02:47:15;37.75;;;25.73;;
74469;SDS011;62918;55.706;37.816;2022-08-20T02:47:46;35.58;;;26.02;;
74469;SDS011;62918;55.706;37.816;2022-08-20T02:48:17;36.08;;;26.58;;
74469;SDS011;62918;55.706;37.816;2022-08-20T02:48:49;40.75;;;28.73;;
74469;SDS011;62918;55.706;37.816;2022-08-20T02:49:20;37.83;;;25.15;;
74469;SDS011;62918;55.706;37.816;2022-08-20T02:49:50;31.98;;;23.52;;
74469;SDS011;62918;55.706;37.816;2022-08-20T02:50:22;39.45;;;28.88;;
74469;SDS011;62918;55.706;37.816;2022-08-20T02:51:25;41.28;;;28.85;;
74469;SDS011;62918;55.706;37.816;2022-08-20T02:51:57;39.22;;;29.02;;
74469;SDS011;62918;55.706;37.816;2022-08-20T02:52:27;40.97;;;27.58;;
74469;SDS011;62918;55.706;37.816;2022-08-20T02:52:58;39.80;;;29.63;;
74469;SDS011;62918;55.706;37.816;2022-08-20T02:53:29;39.92;;;29.80;;
74469;SDS011;62918;55.706;37.816;2022-08-20T02:54:02;37.05;;;28.77;;
74469;SDS011;62918;55.706;37.816;2022-08-20T02:54:33;49.00;;;33.65;;
74469;SDS011;62918;55.706;37.816;2022-08-20T02:55:04;47.47;;;32.70;;
74469;SDS011;62918;55.706;37.816;2022-08-20T02:55:35;50.13;;;33.45;;
74469;SDS011;62918;55.706;37.816;2022-08-20T02:56:05;45.67;;;31.30;;
74469;SDS011;62918;55.706;37.816;2022-08-20T02:56:37;44.47;;;32.85;;
74469;SDS011;62918;55.706;37.816;2022-08-20T02:57:11;49.65;;;33.17;;
74469;SDS011;62918;55.706;37.816;2022-08-20T02:57:43;45.15;;;32.38;;
74469;SDS011;62918;55.706;37.816;2022-08-20T02:58:13;42.13;;;32.15;;
74469;SDS011;62918;55.706;37.816;2022-08-20T02:58:45;47.22;;;32.67;;
74469;SDS011;62918;55.706;37.816;2022-08-20T02:59:16;48.58;;;34.92;;
74469;SDS011;62918;55.706;37.816;2022-08-20T02:59:48;42.35;;;34.03;;
74469;SDS011;62918;55.706;37.816;2022-08-20T03:00:20;42.70;;;32.42;;
74469;SDS011;62918;55.706;37.816;2022-08-20T03:00:51;43.30;;;33.20;;
74469;SDS011;62918;55.706;37.816;2022-08-20T03:01:22;45.20;;;32.47;;
74469;SDS011;62918;55.706;37.816;2022-08-20T03:01:52;47.90;;;33.55;;
74469;SDS011;62918;55.706;37.816;2022-08-20T03:02:23;42.08;;;30.33;;
74469;SDS011;62918;55.706;37.816;2022-08-20T03:02:53;44.70;;;33.08;;
74469;SDS011;62918;55.706;37.816;2022-08-20T03:03:24;44.30;;;31.45;;
74469;SDS011;62918;55.706;37.816;2022-08-20T03:03:55;37.13;;;30.73;;
74469;SDS011;62918;55.706;37.816;2022-08-20T03:04:28;43.92;;;31.92;;
74469;SDS011;62918;55.706;37.816;2022-08-20T03:04:59;45.05;;;31.27;;
74469;SDS011;62918;55.706;37.816;2022-08-20T03:05:29;39.50;;;29.92;;
74469;SDS011;62918;55.706;37.816;2022-08-20T03:06:00;43.83;;;29.95;;
74469;SDS011;62918;55.706;37.816;2022-08-20T03:06:31;41.05;;;30.48;;
74469;SDS011;62918;55.706;37.816;2022-08-20T03:07:03;39.30;;;30.15;;
74469;SDS011;62918;55.706;37.816;2022-08-20T03:07:42;41.60;;;30.40;;
74469;SDS011;62918;55.706;37.816;2022-08-20T03:08:14;47.22;;;30.05;;
74469;SDS011;62918;55.706;37.816;2022-08-20T03:08:45;39.75;;;29.25;;
74469;SDS011;62918;55.706;37.816;2022-08-20T03:09:16;39.97;;;30.42;;
74469;SDS011;62918;55.706;37.816;2022-08-20T03:09:46;36.03;;;26.20;;
74469;SDS011;62918;55.706;37.816;2022-08-20T03:10:17;36.83;;;27.60;;
74469;SDS011;62918;55.706;37.816;2022-08-20T03:10:52;36.65;;;28.83;;
74469;SDS011;62918;55.706;37.816;2022-08-20T03:11:23;37.05;;;28.58;;
74469;SDS011;62918;55.706;37.816;2022-08-20T03:11:53;37.30;;;27.85;;
74469;SDS011;62918;55.706;37.816;2022-08-20T03:12:24;39.90;;;28.98;;
74469;SDS011;62918;55.706;37.816;2022-08-20T03:12:54;35.90;;;26.85;;
74469;SDS011;62918;55.706;37.816;2022-08-20T03:13:25;35.80;;;27.05;;
74469;SDS011;62918;55.706;37.816;2022-08-20T03:13:56;37.95;;;26.60;;
74469;SDS011;62918;55.706;37.816;2022-08-20T03:14:26;45.70;;;27.05;;
74469;SDS011;62918;55.706;37.816;2022-08-20T03:14:57;38.70;;;26.95;;
74469;SDS011;62918;55.706;37.816;2022-08-20T03:15:28;45.10;;;29.60;;
74469;SDS011;62918;55.706;37.816;2022-08-20T03:16:02;39.33;;;27.98;;
74469;SDS011;62918;55.706;37.816;2022-08-20T03:16:34;36.30;;;26.30;;
74469;SDS011;62918;55.706;37.816;2022-08-20T03:17:04;31.95;;;24.17;;
74469;SDS011;62918;55.706;37.816;2022-08-20T03:17:35;33.90;;;27.20;;
74469;SDS011;62918;55.706;37.816;2022-08-20T03:18:06;32.40;;;23.73;;